sensor_id;sensor_type;location;lat;lon;timestamp;P1;durP1;ratioP1;P2;durP2;ratioP2
15474;SDS011;7839;50.462;9.678;2024-03-22T00:04:37;0.97;;;0.67;;
15474;SDS011;7839;50.462;9.678;2024-03-22T00:11:17;0.60;;;0.47;;
15474;SDS011;7839;50.462;9.678;2024-03-22T00:17:57;0.50;;;0.50;;
15474;SDS011;7839;50.462;9.678;2024-03-22T00:24:38;0.40;;;0.40;;
15474;SDS011;7839;50.462;9.678;2024-03-22T00:31:18;0.30;;;0.30;;
15474;SDS011;7839;50.462;9.678;2024-03-22T00:37:58;0.50;;;0.47;;
15474;SDS011;7839;50.462;9.678;2024-03-22T00:44:38;0.40;;;0.40;;
15474;SDS011;7839;50.462;9.678;2024-03-22T00:51:18;0.30;;;0.30;;
15474;SDS011;7839;50.462;9.678;2024-03-22T00:57:59;0.37;;;0.37;;
15474;SDS011;7839;50.462;9.678;2024-03-22T01:04:39;0.43;;;0.43;;
15474;SDS011;7839;50.462;9.678;2024-03-22T01:11:19;0.43;;;0.23;;
15474;SDS011;7839;50.462;9.678;2024-03-22T01:17:59;0.43;;;0.43;;
15474;SDS011;7839;50.462;9.678;2024-03-22T01:24:40;0.53;;;0.30;;
15474;SDS011;7839;50.462;9.678;2024-03-22T01:31:20;0.50;;;0.50;;
15474;SDS011;7839;50.462;9.678;2024-03-22T01:38:00;0.30;;;0.30;;
15474;SDS011;7839;50.462;9.678;2024-03-22T01:44:40;0.30;;;0.30;;
15474;SDS011;7839;50.462;9.678;2024-03-22T01:51:21;0.50;;;0.50;;
15474;SDS011;7839;50.462;9.678;2024-03-22T01:58:01;0.30;;;0.30;;
15474;SDS011;7839;50.462;9.678;2024-03-22T02:04:43;0.50;;;0.50;;
15474;SDS011;7839;50.462;9.678;2024-03-22T02:11:23;0.30;;;0.30;;
15474;SDS011;7839;50.462;9.678;2024-03-22T02:18:04;0.57;;;0.40;;
15474;SDS011;7839;50.462;9.678;2024-03-22T02:24:44;0.30;;;0.30;;
15474;SDS011;7839;50.462;9.678;2024-03-22T02:31:24;0.30;;;0.30;;
15474;SDS011;7839;50.462;9.678;2024-03-22T02:38:06;0.20;;;0.20;;
15474;SDS011;7839;50.462;9.678;2024-03-22T02:44:47;1.73;;;0.90;;
15474;SDS011;7839;50.462;9.678;2024-03-22T02:51:27;0.47;;;0.47;;
15474;SDS011;7839;50.462;9.678;2024-03-22T02:58:07;0.20;;;0.20;;
15474;SDS011;7839;50.462;9.678;2024-03-22T03:04:48;0.40;;;0.40;;
15474;SDS011;7839;50.462;9.678;2024-03-22T03:11:28;0.60;;;0.50;;
15474;SDS011;7839;50.462;9.678;2024-03-22T03:18:08;0.50;;;0.50;;
15474;SDS011;7839;50.462;9.678;2024-03-22T03:24:48;0.63;;;0.47;;
15474;SDS011;7839;50.462;9.678;2024-03-22T03:31:28;0.40;;;0.40;;
15474;SDS011;7839;50.462;9.678;2024-03-22T03:38:09;0.30;;;0.30;;
15474;SDS011;7839;50.462;9.678;2024-03-22T03:44:49;0.50;;;0.50;;
15474;SDS011;7839;50.462;9.678;2024-03-22T03:51:29;0.30;;;0.30;;
15474;SDS011;7839;50.462;9.678;2024-03-22T03:58:09;0.30;;;0.30;;
15474;SDS011;7839;50.462;9.678;2024-03-22T04:04:52;0.40;;;0.40;;
15474;SDS011;7839;50.462;9.678;2024-03-22T04:11:32;0.33;;;0.33;;
15474;SDS011;7839;50.462;9.678;2024-03-22T04:18:12;8.43;;;6.93;;
15474;SDS011;7839;50.462;9.678;2024-03-22T04:24:52;0.60;;;0.60;;
15474;SDS011;7839;50.462;9.678;2024-03-22T04:31:32;0.50;;;0.50;;
15474;SDS011;7839;50.462;9.678;2024-03-22T04:38:12;0.40;;;0.40;;
15474;SDS011;7839;50.462;9.678;2024-03-22T04:44:54;0.53;;;0.53;;
15474;SDS011;7839;50.462;9.678;2024-03-22T04:51:34;0.40;;;0.40;;
15474;SDS011;7839;50.462;9.678;2024-03-22T04:58:15;0.60;;;0.60;;
15474;SDS011;7839;50.462;9.678;2024-03-22T05:04:56;0.50;;;0.50;;
15474;SDS011;7839;50.462;9.678;2024-03-22T05:11:36;0.60;;;0.60;;
15474;SDS011;7839;50.462;9.678;2024-03-22T05:18:16;0.40;;;0.40;;
15474;SDS011;7839;50.462;9.678;2024-03-22T05:24:56;9.40;;;7.53;;
15474;SDS011;7839;50.462;9.678;2024-03-22T05:31:50;0.80;;;0.80;;
15474;SDS011;7839;50.462;9.678;2024-03-22T05:38:31;0.67;;;0.67;;
15474;SDS011;7839;50.462;9.678;2024-03-22T05:45:11;1.13;;;0.90;;
15474;SDS011;7839;50.462;9.678;2024-03-22T05:51:52;0.43;;;0.33;;
15474;SDS011;7839;50.462;9.678;2024-03-22T05:58:32;0.90;;;0.67;;
15474;SDS011;7839;50.462;9.678;2024-03-22T06:05:12;12.30;;;9.03;;
15474;SDS011;7839;50.462;9.678;2024-03-22T06:11:52;1.30;;;1.20;;
15474;SDS011;7839;50.462;9.678;2024-03-22T06:18:32;0.97;;;0.80;;
15474;SDS011;7839;50.462;9.678;2024-03-22T06:25:12;0.87;;;0.87;;
15474;SDS011;7839;50.462;9.678;2024-03-22T06:31:53;0.70;;;0.70;;
15474;SDS011;7839;50.462;9.678;2024-03-22T06:38:33;0.70;;;0.70;;
15474;SDS011;7839;50.462;9.678;2024-03-22T06:45:13;0.80;;;0.80;;
15474;SDS011;7839;50.462;9.678;2024-03-22T06:51:53;1.27;;;1.17;;
15474;SDS011;7839;50.462;9.678;2024-03-22T06:58:34;1.63;;;1.53;;
15474;SDS011;7839;50.462;9.678;2024-03-22T07:05:14;2.07;;;1.90;;
15474;SDS011;7839;50.462;9.678;2024-03-22T07:11:54;2.33;;;2.10;;
15474;SDS011;7839;50.462;9.678;2024-03-22T07:18:34;3.00;;;2.70;;
15474;SDS011;7839;50.462;9.678;2024-03-22T07:25:14;4.87;;;3.97;;
15474;SDS011;7839;50.462;9.678;2024-03-22T07:31:54;4.67;;;4.03;;
15474;SDS011;7839;50.462;9.678;2024-03-22T07:38:35;4.47;;;3.70;;
15474;SDS011;7839;50.462;9.678;2024-03-22T07:45:15;5.63;;;4.67;;
15474;SDS011;7839;50.462;9.678;2024-03-22T07:51:55;4.90;;;4.40;;
15474;SDS011;7839;50.462;9.678;2024-03-22T07:58:35;6.73;;;4.80;;
15474;SDS011;7839;50.462;9.678;2024-03-22T08:05:16;5.73;;;4.97;;
15474;SDS011;7839;50.462;9.678;2024-03-22T08:11:56;5.20;;;4.50;;
15474;SDS011;7839;50.462;9.678;2024-03-22T08:18:36;5.13;;;4.63;;
15474;SDS011;7839;50.462;9.678;2024-03-22T08:25:16;5.72;;;4.72;;
15474;SDS011;7839;50.462;9.678;2024-03-22T08:32:00;5.90;;;5.07;;
15474;SDS011;7839;50.462;9.678;2024-03-22T08:38:44;5.10;;;4.27;;
15474;SDS011;7839;50.462;9.678;2024-03-22T08:45:24;6.00;;;5.10;;
15474;SDS011;7839;50.462;9.678;2024-03-22T08:52:04;5.50;;;4.70;;
15474;SDS011;7839;50.462;9.678;2024-03-22T08:58:44;5.70;;;5.00;;
15474;SDS011;7839;50.462;9.678;2024-03-22T09:05:25;6.33;;;5.50;;
15474;SDS011;7839;50.462;9.678;2024-03-22T09:12:05;6.73;;;5.10;;
15474;SDS011;7839;50.462;9.678;2024-03-22T09:18:45;6.13;;;5.53;;
15474;SDS011;7839;50.462;9.678;2024-03-22T09:25:25;5.73;;;4.70;;
15474;SDS011;7839;50.462;9.678;2024-03-22T09:32:05;5.50;;;5.00;;
15474;SDS011;7839;50.462;9.678;2024-03-22T09:38:46;8.53;;;6.07;;
15474;SDS011;7839;50.462;9.678;2024-03-22T09:45:26;6.80;;;5.67;;
15474;SDS011;7839;50.462;9.678;2024-03-22T09:52:07;5.87;;;5.27;;
15474;SDS011;7839;50.462;9.678;2024-03-22T09:58:47;6.47;;;5.60;;
15474;SDS011;7839;50.462;9.678;2024-03-22T10:05:28;7.60;;;5.60;;
15474;SDS011;7839;50.462;9.678;2024-03-22T10:12:08;6.27;;;5.67;;
15474;SDS011;7839;50.462;9.678;2024-03-22T10:18:48;5.27;;;4.77;;
15474;SDS011;7839;50.462;9.678;2024-03-22T10:25:28;5.90;;;5.23;;
15474;SDS011;7839;50.462;9.678;2024-03-22T10:32:09;6.25;;;5.20;;
15474;SDS011;7839;50.462;9.678;2024-03-22T10:38:50;5.70;;;4.97;;
15474;SDS011;7839;50.462;9.678;2024-03-22T10:45:31;6.97;;;5.00;;
15474;SDS011;7839;50.462;9.678;2024-03-22T10:52:13;5.80;;;5.00;;
15474;SDS011;7839;50.462;9.678;2024-03-22T10:58:53;5.67;;;4.87;;
15474;SDS011;7839;50.462;9.678;2024-03-22T11:05:34;6.43;;;4.73;;
15474;SDS011;7839;50.462;9.678;2024-03-22T11:12:14;4.93;;;4.43;;
15474;SDS011;7839;50.462;9.678;2024-03-22T11:18:54;6.37;;;4.77;;
15474;SDS011;7839;50.462;9.678;2024-03-22T11:25:34;4.43;;;4.03;;
15474;SDS011;7839;50.462;9.678;2024-03-22T11:32:15;5.17;;;4.37;;
15474;SDS011;7839;50.462;9.678;2024-03-22T11:38:56;4.73;;;4.20;;
15474;SDS011;7839;50.462;9.678;2024-03-22T11:45:36;4.33;;;3.93;;
15474;SDS011;7839;50.462;9.678;2024-03-22T11:52:17;5.73;;;4.30;;
15474;SDS011;7839;50.462;9.678;2024-03-22T11:58:58;4.50;;;4.10;;
15474;SDS011;7839;50.462;9.678;2024-03-22T12:05:40;4.67;;;4.13;;
15474;SDS011;7839;50.462;9.678;2024-03-22T12:12:21;4.83;;;4.30;;
15474;SDS011;7839;50.462;9.678;2024-03-22T12:19:01;4.67;;;4.13;;
15474;SDS011;7839;50.462;9.678;2024-03-22T12:25:41;4.30;;;3.90;;
15474;SDS011;7839;50.462;9.678;2024-03-22T12:32:21;4.37;;;3.93;;
15474;SDS011;7839;50.462;9.678;2024-03-22T12:39:02;5.13;;;4.23;;
15474;SDS011;7839;50.462;9.678;2024-03-22T12:45:43;5.37;;;4.87;;
15474;SDS011;7839;50.462;9.678;2024-03-22T12:52:23;4.77;;;3.60;;
15474;SDS011;7839;50.462;9.678;2024-03-22T12:59:03;3.70;;;3.40;;
15474;SDS011;7839;50.462;9.678;2024-03-22T13:05:44;4.33;;;3.30;;
15474;SDS011;7839;50.462;9.678;2024-03-22T13:12:25;8.10;;;6.63;;
15474;SDS011;7839;50.462;9.678;2024-03-22T13:19:05;4.00;;;3.60;;
15474;SDS011;7839;50.462;9.678;2024-03-22T13:25:48;6.37;;;5.13;;
15474;SDS011;7839;50.462;9.678;2024-03-22T13:32:29;3.70;;;3.37;;
15474;SDS011;7839;50.462;9.678;2024-03-22T13:39:09;3.40;;;3.10;;
15474;SDS011;7839;50.462;9.678;2024-03-22T13:45:51;3.73;;;3.17;;
15474;SDS011;7839;50.462;9.678;2024-03-22T13:52:34;3.57;;;3.27;;
15474;SDS011;7839;50.462;9.678;2024-03-22T13:59:14;3.30;;;2.97;;
15474;SDS011;7839;50.462;9.678;2024-03-22T14:05:56;3.77;;;2.77;;
15474;SDS011;7839;50.462;9.678;2024-03-22T14:12:36;3.60;;;3.30;;
15474;SDS011;7839;50.462;9.678;2024-03-22T14:19:16;9.23;;;6.30;;
15474;SDS011;7839;50.462;9.678;2024-03-22T14:25:58;5.93;;;5.27;;
15474;SDS011;7839;50.462;9.678;2024-03-22T14:32:38;3.23;;;2.93;;
15474;SDS011;7839;50.462;9.678;2024-03-22T14:39:19;3.40;;;3.10;;
15474;SDS011;7839;50.462;9.678;2024-03-22T14:45:59;3.30;;;3.00;;
15474;SDS011;7839;50.462;9.678;2024-03-22T14:52:39;4.33;;;3.43;;
15474;SDS011;7839;50.462;9.678;2024-03-22T14:59:20;6.53;;;4.73;;
15474;SDS011;7839;50.462;9.678;2024-03-22T15:06:00;2.90;;;2.70;;
15474;SDS011;7839;50.462;9.678;2024-03-22T15:12:40;4.70;;;3.30;;
15474;SDS011;7839;50.462;9.678;2024-03-22T15:19:20;4.00;;;3.27;;
15474;SDS011;7839;50.462;9.678;2024-03-22T15:26:02;3.70;;;3.40;;
15474;SDS011;7839;50.462;9.678;2024-03-22T15:32:43;3.30;;;3.00;;
15474;SDS011;7839;50.462;9.678;2024-03-22T15:39:23;3.40;;;3.10;;
15474;SDS011;7839;50.462;9.678;2024-03-22T15:46:05;4.10;;;3.63;;
15474;SDS011;7839;50.462;9.678;2024-03-22T15:52:45;3.80;;;3.43;;
15474;SDS011;7839;50.462;9.678;2024-03-22T15:59:25;4.43;;;3.67;;
15474;SDS011;7839;50.462;9.678;2024-03-22T16:06:06;4.07;;;3.73;;
15474;SDS011;7839;50.462;9.678;2024-03-22T16:12:46;4.60;;;4.20;;
15474;SDS011;7839;50.462;9.678;2024-03-22T16:19:26;4.70;;;4.17;;
15474;SDS011;7839;50.462;9.678;2024-03-22T16:26:08;5.33;;;4.10;;
15474;SDS011;7839;50.462;9.678;2024-03-22T16:32:48;4.83;;;4.33;;
15474;SDS011;7839;50.462;9.678;2024-03-22T16:39:28;5.17;;;4.67;;
15474;SDS011;7839;50.462;9.678;2024-03-22T16:46:09;5.90;;;4.60;;
15474;SDS011;7839;50.462;9.678;2024-03-22T16:52:49;7.13;;;5.87;;
15474;SDS011;7839;50.462;9.678;2024-03-22T16:59:29;11.83;;;8.00;;
15474;SDS011;7839;50.462;9.678;2024-03-22T17:06:09;10.20;;;8.00;;
15474;SDS011;7839;50.462;9.678;2024-03-22T17:12:49;12.17;;;8.27;;
15474;SDS011;7839;50.462;9.678;2024-03-22T17:19:29;10.50;;;7.53;;
15474;SDS011;7839;50.462;9.678;2024-03-22T17:26:10;8.80;;;6.30;;
15474;SDS011;7839;50.462;9.678;2024-03-22T17:32:50;10.77;;;7.37;;
15474;SDS011;7839;50.462;9.678;2024-03-22T17:39:30;10.07;;;6.70;;
15474;SDS011;7839;50.462;9.678;2024-03-22T17:46:11;10.23;;;6.10;;
15474;SDS011;7839;50.462;9.678;2024-03-22T17:52:51;9.13;;;6.50;;
15474;SDS011;7839;50.462;9.678;2024-03-22T17:59:31;7.47;;;6.63;;
15474;SDS011;7839;50.462;9.678;2024-03-22T18:06:12;8.63;;;6.07;;
15474;SDS011;7839;50.462;9.678;2024-03-22T18:12:52;10.87;;;6.47;;
15474;SDS011;7839;50.462;9.678;2024-03-22T18:19:33;8.37;;;6.30;;
15474;SDS011;7839;50.462;9.678;2024-03-22T18:26:13;7.20;;;6.13;;
15474;SDS011;7839;50.462;9.678;2024-03-22T18:32:53;7.67;;;6.60;;
15474;SDS011;7839;50.462;9.678;2024-03-22T18:39:33;7.10;;;6.03;;
15474;SDS011;7839;50.462;9.678;2024-03-22T18:46:13;8.40;;;6.10;;
15474;SDS011;7839;50.462;9.678;2024-03-22T18:52:53;6.33;;;5.70;;
15474;SDS011;7839;50.462;9.678;2024-03-22T18:59:34;7.43;;;5.97;;
15474;SDS011;7839;50.462;9.678;2024-03-22T19:06:14;6.83;;;5.90;;
15474;SDS011;7839;50.462;9.678;2024-03-22T19:12:54;8.77;;;6.70;;
15474;SDS011;7839;50.462;9.678;2024-03-22T19:19:34;7.00;;;6.23;;
15474;SDS011;7839;50.462;9.678;2024-03-22T19:26:16;7.07;;;6.30;;
15474;SDS011;7839;50.462;9.678;2024-03-22T19:32:57;6.97;;;5.77;;
15474;SDS011;7839;50.462;9.678;2024-03-22T19:39:38;7.70;;;6.13;;
15474;SDS011;7839;50.462;9.678;2024-03-22T19:46:18;7.27;;;6.57;;
15474;SDS011;7839;50.462;9.678;2024-03-22T19:52:58;7.90;;;6.20;;
15474;SDS011;7839;50.462;9.678;2024-03-22T19:59:38;6.97;;;6.27;;
15474;SDS011;7839;50.462;9.678;2024-03-22T20:06:18;6.20;;;5.60;;
15474;SDS011;7839;50.462;9.678;2024-03-22T20:12:58;6.07;;;5.43;;
15474;SDS011;7839;50.462;9.678;2024-03-22T20:19:39;6.07;;;5.10;;
15474;SDS011;7839;50.462;9.678;2024-03-22T20:26:19;5.83;;;4.60;;
15474;SDS011;7839;50.462;9.678;2024-03-22T20:32:59;4.93;;;4.43;;
